DFCT weather

Tenado Airport
Tenado, Sanguie, Burkina Faso

Public forecast

Using degrees Celsius for public forecast. Weather courtesy of forecast.io.

Closest aviation weather report (METAR) to Tenado Airport

Report is more than 6 hours old.

Closest report is Ouagadougou Airport, 63.5 nm (117.6 km) E. Retrieved 2020/04/07 18:00 UTC (12 hours ago):

DFFD 071800Z 03004KT CAVOK 40/09 Q1007 NOSIG

Closest aviation forecast (TAF) to Tenado Airport

Closest forecast is Ouagadougou Airport, 63.5 nm (117.6 km) E. Retrieved 2020-04-08 00:03 UTC (6 hours ago):

TAF TAF DFFD 072300Z 0800/0906 VRB08KT 8000 NSC